createdAt,value
2022-10-19T00:01:03.692Z,1.00
2022-10-19T00:03:31.812Z,1.00
2022-10-19T00:05:59.847Z,1.00
2022-10-19T00:08:28.290Z,1.00
2022-10-19T00:10:56.395Z,1.00
2022-10-19T00:13:24.463Z,1.00
2022-10-19T00:15:53.967Z,1.00
2022-10-19T00:18:22.044Z,1.00
2022-10-19T00:20:50.061Z,1.00
2022-10-19T00:23:18.178Z,1.00
2022-10-19T00:25:56.247Z,1.00
2022-10-19T00:28:24.451Z,1.00
2022-10-19T00:30:53.932Z,1.00
2022-10-19T00:33:22.609Z,1.00
2022-10-19T00:35:52.353Z,95.30
2022-10-19T00:38:21.897Z,99.90
2022-10-19T00:40:50.337Z,99.90
2022-10-19T00:43:20.642Z,99.90
2022-10-19T00:45:48.734Z,99.90
2022-10-19T00:48:25.920Z,99.90
2022-10-19T00:50:56.346Z,99.90
2022-10-19T00:53:27.078Z,99.90
2022-10-19T00:55:55.446Z,99.90
2022-10-19T00:58:23.512Z,99.90
2022-10-19T01:00:51.710Z,99.90
2022-10-19T01:03:22.283Z,99.90
2022-10-19T01:05:50.958Z,99.90
2022-10-19T01:08:19.311Z,99.90
2022-10-19T01:10:59.038Z,99.90
2022-10-19T01:13:42.045Z,99.90
2022-10-19T01:16:18.121Z,99.90
2022-10-19T01:18:56.006Z,99.90
2022-10-19T01:21:27.134Z,99.90
2022-10-19T01:24:47.297Z,99.90
2022-10-19T01:27:52.014Z,99.90
2022-10-19T01:30:34.634Z,99.90
2022-10-19T01:33:17.315Z,99.90
2022-10-19T01:35:54.958Z,99.90
2022-10-19T01:38:31.342Z,99.90
2022-10-19T01:41:05.410Z,99.90
2022-10-19T01:43:41.193Z,99.90
2022-10-19T01:46:15.040Z,99.90
2022-10-19T01:48:48.289Z,99.90
2022-10-19T01:51:20.427Z,99.90
2022-10-19T01:53:52.316Z,99.90
2022-10-19T01:56:25.274Z,99.90
2022-10-19T01:58:57.753Z,99.90
2022-10-19T02:01:31.289Z,99.90
2022-10-19T02:04:01.551Z,99.90
2022-10-19T02:06:31.108Z,99.90
2022-10-19T02:08:59.275Z,99.90
2022-10-19T02:11:27.449Z,99.90
2022-10-19T02:14:00.455Z,99.90
2022-10-19T02:16:34.003Z,99.90
2022-10-19T02:19:04.025Z,99.90
2022-10-19T02:21:33.319Z,99.40
2022-10-19T02:24:01.672Z,99.90
2022-10-19T02:26:29.798Z,99.90
2022-10-19T02:28:58.409Z,93.60
2022-10-19T02:31:27.362Z,99.90
2022-10-19T02:33:56.707Z,99.90
2022-10-19T02:36:24.920Z,99.90
2022-10-19T02:38:53.098Z,99.90
2022-10-19T02:41:25.104Z,99.90
2022-10-19T02:43:59.437Z,99.90
2022-10-19T02:46:33.392Z,99.90
2022-10-19T02:49:04.739Z,99.90
2022-10-19T02:51:34.671Z,99.90
2022-10-19T02:54:05.234Z,99.90
2022-10-19T02:56:34.414Z,99.90
2022-10-19T02:59:03.061Z,1.00
2022-10-19T03:01:31.175Z,1.00
2022-10-19T03:03:59.225Z,1.00
2022-10-19T03:06:28.676Z,1.00
2022-10-19T03:08:56.804Z,1.00
2022-10-19T03:11:24.877Z,1.00
2022-10-19T03:13:53.031Z,1.00
2022-10-19T03:16:21.104Z,1.00
2022-10-19T03:18:49.406Z,1.00
2022-10-19T03:21:17.790Z,1.00
2022-10-19T03:23:47.307Z,1.00
2022-10-19T03:26:17.740Z,1.00
2022-10-19T03:28:46.005Z,1.00
2022-10-19T03:31:14.264Z,1.00
2022-10-19T03:33:42.310Z,1.00
2022-10-19T03:36:19.777Z,1.00
2022-10-19T03:38:51.280Z,1.00
2022-10-19T03:41:19.905Z,1.00
2022-10-19T03:43:48.492Z,1.00
2022-10-19T03:46:17.136Z,1.00
2022-10-19T03:48:46.000Z,1.00
2022-10-19T03:51:15.674Z,1.00
2022-10-19T03:53:43.934Z,1.00
2022-10-19T03:56:15.194Z,1.00
2022-10-19T03:58:44.519Z,1.00
2022-10-19T04:01:14.566Z,1.00
2022-10-19T04:03:42.722Z,1.00
2022-10-19T04:06:15.846Z,1.00
2022-10-19T04:08:49.122Z,1.00
2022-10-19T04:11:21.290Z,1.00
2022-10-19T04:13:50.280Z,1.00
2022-10-19T04:16:18.679Z,1.00
2022-10-19T04:18:46.729Z,1.00
2022-10-19T04:21:22.836Z,1.00
2022-10-19T04:23:51.789Z,1.00
2022-10-19T04:26:21.730Z,1.00
2022-10-19T04:28:50.111Z,1.00
2022-10-19T04:31:18.255Z,1.00
2022-10-19T04:36:19.497Z,1.00
2022-10-19T04:38:47.543Z,1.00
2022-10-19T04:41:17.736Z,1.00
2022-10-19T04:43:48.129Z,1.00
2022-10-19T04:46:17.752Z,1.00
2022-10-19T04:48:46.985Z,99.90
2022-10-19T04:51:15.964Z,99.90
2022-10-19T04:53:44.669Z,99.90
2022-10-19T04:56:14.640Z,1.00
2022-10-19T04:58:42.737Z,1.00
2022-10-19T05:01:13.976Z,99.90
2022-10-19T05:03:42.758Z,99.90
2022-10-19T05:06:11.828Z,99.90
2022-10-19T05:08:40.317Z,1.00
2022-10-19T05:11:10.506Z,99.90
2022-10-19T05:13:39.322Z,1.00
2022-10-19T05:16:10.690Z,1.00
2022-10-19T05:18:40.706Z,1.00
2022-10-19T05:21:10.621Z,1.00
2022-10-19T05:23:39.525Z,1.00
2022-10-19T05:26:09.017Z,99.90
2022-10-19T05:28:37.889Z,99.90
2022-10-19T05:31:08.014Z,1.00
2022-10-19T05:33:36.679Z,99.90
2022-10-19T05:36:18.609Z,99.90
2022-10-19T05:38:48.875Z,1.00
2022-10-19T05:41:17.744Z,1.00
2022-10-19T05:43:47.976Z,99.90
2022-10-19T05:46:18.185Z,1.00
2022-10-19T05:48:46.982Z,1.00
2022-10-19T05:51:18.391Z,1.00
2022-10-19T05:53:46.738Z,1.00
2022-10-19T05:56:16.686Z,36.70
2022-10-19T05:58:45.153Z,1.00
2022-10-19T06:01:13.950Z,1.00
2022-10-19T06:03:42.256Z,56.60
2022-10-19T06:06:10.909Z,99.90
2022-10-19T06:08:40.702Z,99.90
2022-10-19T06:11:11.184Z,1.00
2022-10-19T06:13:40.494Z,1.00
2022-10-19T06:16:10.267Z,1.00
2022-10-19T06:18:39.164Z,1.00
2022-10-19T06:21:09.670Z,1.00
2022-10-19T06:23:38.488Z,1.00
2022-10-19T06:26:10.273Z,1.00
2022-10-19T06:28:40.252Z,1.00
2022-10-19T06:31:09.558Z,1.00
2022-10-19T06:33:39.961Z,1.00
2022-10-19T06:36:08.778Z,1.00
2022-10-19T06:38:37.065Z,1.00
2022-10-19T06:41:07.465Z,1.00
2022-10-19T06:43:36.489Z,1.00
2022-10-19T06:46:06.329Z,99.90
2022-10-19T06:48:34.530Z,96.20
2022-10-19T06:51:06.357Z,1.00
2022-10-19T06:53:34.879Z,1.00
2022-10-19T06:56:04.790Z,1.00
2022-10-19T06:58:36.649Z,1.00
2022-10-19T07:01:07.572Z,1.00
2022-10-19T07:03:36.787Z,1.00
2022-10-19T07:06:07.051Z,1.00
2022-10-19T07:08:36.802Z,1.00
2022-10-19T07:11:07.852Z,1.00
2022-10-19T07:13:37.577Z,1.00
2022-10-19T07:16:07.661Z,1.00
2022-10-19T07:18:36.648Z,1.00
2022-10-19T07:21:07.080Z,1.00
2022-10-19T07:23:36.455Z,1.00
2022-10-19T07:26:09.789Z,1.00
2022-10-19T07:28:40.335Z,1.00
2022-10-19T07:31:10.488Z,1.00
2022-10-19T07:33:38.838Z,1.00
2022-10-19T07:36:08.932Z,1.00
2022-10-19T07:38:37.762Z,1.00
2022-10-19T07:41:08.146Z,1.00
2022-10-19T07:43:36.828Z,1.00
2022-10-19T07:46:08.059Z,1.00
2022-10-19T07:48:36.478Z,1.00
2022-10-19T07:51:07.860Z,1.00
2022-10-19T07:53:36.607Z,1.00
2022-10-19T07:56:06.212Z,1.00
2022-10-19T07:58:34.661Z,1.00
2022-10-19T08:01:03.368Z,1.00
2022-10-19T08:06:21.753Z,1.00
2022-10-19T08:08:50.180Z,1.00
2022-10-19T08:11:21.444Z,1.00
2022-10-19T08:13:50.372Z,1.00
2022-10-19T08:16:24.621Z,1.00
2022-10-19T08:18:57.283Z,1.00
2022-10-19T08:21:25.570Z,1.00
2022-10-19T08:23:53.770Z,99.90
2022-10-19T08:26:22.231Z,1.00
2022-10-19T08:28:50.290Z,99.90
2022-10-19T08:31:20.415Z,99.90
2022-10-19T08:33:51.040Z,99.90
2022-10-19T08:36:21.499Z,99.90
2022-10-19T08:38:50.234Z,99.90
2022-10-19T08:41:31.845Z,99.90
2022-10-19T08:44:22.282Z,99.90
2022-10-19T08:47:02.743Z,99.90
2022-10-19T08:49:33.464Z,99.90
2022-10-19T08:52:06.694Z,99.90
2022-10-19T08:54:42.247Z,99.90
2022-10-19T08:57:25.321Z,99.90
2022-10-19T09:00:01.693Z,99.90
2022-10-19T09:02:44.845Z,99.90
2022-10-19T09:05:22.491Z,99.90
2022-10-19T09:07:54.583Z,99.90
2022-10-19T09:10:27.420Z,99.90
2022-10-19T09:12:59.252Z,99.90
2022-10-19T09:15:33.652Z,99.90
2022-10-19T09:18:02.658Z,99.90
2022-10-19T09:20:36.447Z,99.90
2022-10-19T09:23:19.809Z,99.90
2022-10-19T09:25:49.677Z,99.90
2022-10-19T09:28:36.654Z,99.90
2022-10-19T09:31:13.962Z,99.90
2022-10-19T09:33:44.971Z,99.90
2022-10-19T09:36:22.410Z,99.90
2022-10-19T09:38:57.049Z,99.90
2022-10-19T09:41:26.266Z,74.50
2022-10-19T09:43:56.361Z,45.10
2022-10-19T09:46:48.540Z,44.50
2022-10-19T09:49:16.967Z,23.80
2022-10-19T09:51:52.145Z,26.40
2022-10-19T09:54:34.884Z,1.00
2022-10-19T09:57:03.252Z,1.00
2022-10-19T09:59:35.014Z,1.00
2022-10-19T10:02:17.737Z,1.00
2022-10-19T10:04:55.691Z,1.00
2022-10-19T10:07:28.252Z,1.00
2022-10-19T10:09:57.708Z,1.00
2022-10-19T10:12:25.796Z,1.00
2022-10-19T10:14:56.277Z,1.00
2022-10-19T10:17:30.390Z,1.00
2022-10-19T10:20:23.391Z,1.00
2022-10-19T10:22:57.954Z,1.00
2022-10-19T10:25:30.688Z,1.00
2022-10-19T10:28:01.603Z,1.00
2022-10-19T10:30:34.828Z,1.00
2022-10-19T10:33:13.351Z,1.00
2022-10-19T10:35:55.574Z,1.00
2022-10-19T10:38:26.389Z,1.00
2022-10-19T10:40:58.775Z,1.00
2022-10-19T10:43:31.878Z,1.00
2022-10-19T10:46:05.152Z,1.00
2022-10-19T10:48:37.323Z,1.00
2022-10-19T10:51:19.815Z,1.00
2022-10-19T10:53:48.145Z,1.00
2022-10-19T10:56:29.420Z,1.00
2022-10-19T10:59:01.573Z,1.00
2022-10-19T11:01:34.071Z,1.00
2022-10-19T11:04:06.549Z,1.00
2022-10-19T11:06:42.268Z,1.00
2022-10-19T11:09:23.007Z,1.00
2022-10-19T11:11:56.123Z,1.00
2022-10-19T11:14:31.414Z,1.00
2022-10-19T11:17:01.905Z,1.00
2022-10-19T11:19:36.057Z,1.00
2022-10-19T11:22:15.128Z,1.00
2022-10-19T11:24:53.376Z,1.00
2022-10-19T11:27:36.171Z,1.00
2022-10-19T11:30:11.490Z,1.00
2022-10-19T11:32:52.843Z,1.00
2022-10-19T11:35:41.925Z,1.00
2022-10-19T11:38:26.270Z,1.00
2022-10-19T11:41:17.258Z,1.00
2022-10-19T11:43:59.189Z,1.00
2022-10-19T11:46:35.623Z,1.00
2022-10-19T11:49:15.445Z,1.00
2022-10-19T11:51:53.437Z,1.00
2022-10-19T11:54:34.288Z,1.00
2022-10-19T11:57:11.368Z,1.00
2022-10-19T12:00:00.215Z,1.00
2022-10-19T12:03:17.580Z,1.00
2022-10-19T12:06:03.959Z,1.00
2022-10-19T12:08:46.417Z,1.00
2022-10-19T12:11:29.189Z,1.00
2022-10-19T12:14:00.043Z,1.00
2022-10-19T12:16:36.949Z,1.00
2022-10-19T12:19:06.752Z,1.00
2022-10-19T12:21:38.572Z,1.00
2022-10-19T12:24:14.875Z,1.00
2022-10-19T12:26:43.425Z,1.00
2022-10-19T12:29:16.885Z,1.00
2022-10-19T12:31:47.444Z,1.00
2022-10-19T12:34:27.630Z,1.00
2022-10-19T12:37:01.886Z,1.00
2022-10-19T12:39:40.427Z,1.00
2022-10-19T12:42:14.959Z,1.00
2022-10-19T12:45:07.402Z,1.00
2022-10-19T12:47:37.175Z,1.00
2022-10-19T12:50:06.131Z,1.00
2022-10-19T12:52:44.444Z,1.00
2022-10-19T12:55:29.718Z,1.00
2022-10-19T12:58:01.363Z,1.00
2022-10-19T13:00:32.610Z,1.00
2022-10-19T13:03:05.835Z,1.00
2022-10-19T13:05:35.764Z,1.00
2022-10-19T13:08:08.074Z,1.00
2022-10-19T13:10:39.027Z,1.00
2022-10-19T13:13:14.421Z,1.00
2022-10-19T13:15:53.005Z,1.00
2022-10-19T13:19:07.382Z,1.00
2022-10-19T13:22:02.826Z,1.00
2022-10-19T13:24:34.721Z,1.00
2022-10-19T13:27:26.073Z,1.00
2022-10-19T13:29:54.159Z,1.00
2022-10-19T13:32:38.541Z,1.00
2022-10-19T13:35:27.573Z,1.00
2022-10-19T13:38:26.299Z,1.00
2022-10-19T13:41:04.453Z,1.00
2022-10-19T13:43:35.408Z,1.00
2022-10-19T13:46:16.092Z,1.00
2022-10-19T13:49:06.996Z,1.00
2022-10-19T13:51:42.122Z,1.00
2022-10-19T13:54:27.538Z,1.00
2022-10-19T13:57:11.059Z,1.00
2022-10-19T14:00:02.618Z,1.00
2022-10-19T14:03:02.000Z,1.00
2022-10-19T14:06:08.457Z,1.00
2022-10-19T14:09:04.503Z,1.00
2022-10-19T14:11:37.108Z,1.00
2022-10-19T14:14:14.760Z,1.00
2022-10-19T14:16:58.310Z,1.00
2022-10-19T14:19:32.287Z,1.00
2022-10-19T14:22:02.340Z,1.00
2022-10-19T14:24:33.126Z,1.00
2022-10-19T14:27:04.334Z,1.00
2022-10-19T14:29:38.568Z,1.00
2022-10-19T14:32:06.811Z,1.00
2022-10-19T14:34:34.815Z,1.00
2022-10-19T14:37:02.948Z,1.00
2022-10-19T14:39:33.648Z,1.00
2022-10-19T14:42:07.526Z,1.00
2022-10-19T14:44:41.542Z,1.00
2022-10-19T14:47:21.965Z,1.00
2022-10-19T14:49:51.175Z,1.00
2022-10-19T14:52:24.087Z,1.00
2022-10-19T14:54:55.539Z,1.00
2022-10-19T14:57:30.139Z,1.00
2022-10-19T15:00:02.344Z,1.00
2022-10-19T15:02:33.431Z,1.00
2022-10-19T15:05:05.122Z,1.00
2022-10-19T15:07:38.483Z,1.00
2022-10-19T15:10:09.236Z,1.00
2022-10-19T15:12:41.286Z,1.00
2022-10-19T15:15:12.242Z,1.00
2022-10-19T15:17:52.219Z,1.00
2022-10-19T15:20:29.864Z,1.00
2022-10-19T15:22:59.292Z,1.00
2022-10-19T15:25:33.386Z,1.00
2022-10-19T15:28:32.417Z,1.00
2022-10-19T15:31:06.945Z,1.00
2022-10-19T15:33:40.344Z,1.00
2022-10-19T15:36:16.841Z,1.00
2022-10-19T15:38:46.157Z,1.00
2022-10-19T15:41:20.031Z,1.00
2022-10-19T15:43:50.968Z,1.00
2022-10-19T15:46:26.666Z,1.00
2022-10-19T15:48:55.955Z,1.00
2022-10-19T15:51:44.857Z,1.00
2022-10-19T15:54:15.835Z,1.00
2022-10-19T15:56:45.164Z,1.00
2022-10-19T15:59:15.943Z,1.00
2022-10-19T16:01:51.119Z,1.00
2022-10-19T16:04:23.188Z,1.00
2022-10-19T16:06:51.383Z,1.00
2022-10-19T16:09:22.352Z,1.00
2022-10-19T16:11:56.410Z,1.00
2022-10-19T16:14:26.194Z,1.00
2022-10-19T16:17:03.682Z,1.00
2022-10-19T16:19:31.769Z,1.00
2022-10-19T16:21:59.819Z,1.00
2022-10-19T16:24:27.954Z,1.00
2022-10-19T16:26:56.102Z,1.00
2022-10-19T16:29:28.196Z,1.00
2022-10-19T16:31:58.712Z,1.00
2022-10-19T16:34:26.866Z,1.00
2022-10-19T16:36:55.261Z,1.00
2022-10-19T16:39:25.466Z,1.00
2022-10-19T16:41:53.669Z,1.00
2022-10-19T16:44:22.010Z,1.00
2022-10-19T16:46:50.129Z,1.00
2022-10-19T16:49:19.639Z,1.00
2022-10-19T16:51:48.061Z,1.00
2022-10-19T16:54:17.661Z,1.00
2022-10-19T16:56:47.434Z,1.00
2022-10-19T16:59:18.187Z,1.00
2022-10-19T17:01:47.299Z,1.00
2022-10-19T17:04:17.991Z,1.00
2022-10-19T17:06:47.578Z,1.00
2022-10-19T17:09:41.333Z,1.00
2022-10-19T17:12:03.821Z,1.00
2022-10-19T17:14:31.801Z,1.00
2022-10-19T17:17:00.178Z,1.00
2022-10-19T17:19:28.224Z,1.00
2022-10-19T17:21:59.035Z,1.00
2022-10-19T17:24:27.364Z,1.00
2022-10-19T17:26:55.653Z,1.00
2022-10-19T17:29:24.117Z,1.00
2022-10-19T17:31:52.137Z,1.00
2022-10-19T17:34:20.163Z,1.00
2022-10-19T17:36:48.610Z,1.00
2022-10-19T17:39:22.137Z,1.00
2022-10-19T17:41:52.903Z,1.00
2022-10-19T17:44:22.177Z,1.00
2022-10-19T17:46:50.277Z,1.00
2022-10-19T17:49:18.769Z,1.00
2022-10-19T17:51:46.778Z,1.00
2022-10-19T17:54:15.684Z,4.50
2022-10-19T17:56:45.923Z,80.50
2022-10-19T17:59:13.926Z,66.80
2022-10-19T18:01:42.024Z,99.90
2022-10-19T18:04:09.981Z,99.90
2022-10-19T18:06:39.339Z,99.90
2022-10-19T18:09:09.063Z,99.90
2022-10-19T18:11:40.117Z,99.90
2022-10-19T18:14:11.333Z,99.90
2022-10-19T18:16:41.564Z,99.90
2022-10-19T18:19:10.037Z,99.90
2022-10-19T18:21:39.749Z,99.90
2022-10-19T18:24:12.714Z,99.90
2022-10-19T18:26:43.753Z,99.90
2022-10-19T18:29:16.284Z,99.90
2022-10-19T18:31:44.223Z,99.90
2022-10-19T18:34:15.530Z,99.90
2022-10-19T18:36:43.739Z,99.90
2022-10-19T18:39:13.234Z,99.90
2022-10-19T18:41:41.774Z,99.90
2022-10-19T18:44:14.373Z,99.90
2022-10-19T18:46:42.511Z,99.90
2022-10-19T18:49:12.691Z,99.90
2022-10-19T18:51:41.023Z,99.90
2022-10-19T18:54:09.604Z,99.90
2022-10-19T18:56:37.608Z,99.90
2022-10-19T18:59:05.968Z,99.90
2022-10-19T19:01:35.457Z,99.90
2022-10-19T19:04:09.208Z,99.90
2022-10-19T19:06:39.391Z,99.90
2022-10-19T19:09:09.818Z,1.00
2022-10-19T19:11:40.742Z,99.90
2022-10-19T19:14:13.756Z,1.00
2022-10-19T19:16:45.521Z,1.00
2022-10-19T19:19:16.227Z,99.90
2022-10-19T19:21:45.110Z,1.00
2022-10-19T19:24:15.369Z,1.00
2022-10-19T19:26:47.465Z,1.00
2022-10-19T19:29:15.815Z,1.00
2022-10-19T19:31:45.613Z,1.00
2022-10-19T19:34:13.706Z,1.00
2022-10-19T19:36:47.377Z,1.00
2022-10-19T19:39:16.805Z,1.00
2022-10-19T19:41:44.904Z,1.00
2022-10-19T19:44:13.003Z,1.00
2022-10-19T19:46:41.116Z,1.00
2022-10-19T19:49:10.770Z,1.00
2022-10-19T19:51:39.139Z,1.00
2022-10-19T19:54:07.418Z,1.00
2022-10-19T19:56:37.223Z,1.00
2022-10-19T19:59:05.265Z,1.00
2022-10-19T20:01:34.017Z,1.00
2022-10-19T20:06:39.178Z,1.00
2022-10-19T20:09:08.650Z,1.00
2022-10-19T20:11:41.869Z,1.00
2022-10-19T20:14:10.574Z,1.00
2022-10-19T20:16:38.762Z,1.00
2022-10-19T20:19:10.374Z,1.00
2022-10-19T20:21:40.749Z,1.00
2022-10-19T20:24:09.502Z,1.00
2022-10-19T20:26:37.596Z,1.00
2022-10-19T20:29:06.387Z,1.00
2022-10-19T20:31:39.541Z,1.00
2022-10-19T20:34:13.713Z,1.00
2022-10-19T20:36:43.652Z,1.00
2022-10-19T20:39:11.955Z,1.00
2022-10-19T20:41:40.115Z,1.00
2022-10-19T20:44:08.319Z,99.90
2022-10-19T20:46:37.010Z,99.90
2022-10-19T20:49:05.357Z,1.00
2022-10-19T20:51:36.642Z,1.00
2022-10-19T20:54:08.149Z,1.00
2022-10-19T20:56:37.955Z,1.00
2022-10-19T20:59:07.914Z,1.00
2022-10-19T21:01:38.043Z,1.00
2022-10-19T21:04:09.218Z,1.00
2022-10-19T21:06:39.924Z,1.00
2022-10-19T21:09:09.643Z,1.00
2022-10-19T21:11:39.866Z,1.00
2022-10-19T21:14:09.789Z,1.00
2022-10-19T21:16:38.616Z,1.00
2022-10-19T21:19:09.468Z,1.00
2022-10-19T21:21:39.393Z,1.00
2022-10-19T21:24:12.485Z,1.00
2022-10-19T21:26:41.007Z,1.00
2022-10-19T21:29:10.831Z,1.00
2022-10-19T21:31:40.788Z,1.00
2022-10-19T21:34:15.874Z,1.00
2022-10-19T21:36:44.600Z,1.00
2022-10-19T21:39:14.011Z,1.00
2022-10-19T21:41:42.295Z,1.00
2022-10-19T21:44:10.557Z,1.00
2022-10-19T21:46:38.666Z,1.00
2022-10-19T21:49:06.689Z,22.80
2022-10-19T21:51:37.618Z,1.00
2022-10-19T21:54:06.874Z,1.00
2022-10-19T21:56:37.526Z,1.00
2022-10-19T21:59:05.939Z,1.00
2022-10-19T22:01:38.561Z,1.00
2022-10-19T22:04:11.886Z,1.00
2022-10-19T22:06:40.488Z,1.00
2022-10-19T22:09:10.453Z,1.00
2022-10-19T22:11:39.941Z,1.00
2022-10-19T22:14:08.116Z,1.00
2022-10-19T22:16:37.030Z,1.00
2022-10-19T22:19:06.745Z,1.00
2022-10-19T22:21:35.879Z,1.00
2022-10-19T22:24:06.730Z,1.00
2022-10-19T22:26:36.910Z,1.00
2022-10-19T22:29:07.627Z,1.00
2022-10-19T22:31:36.444Z,1.00
2022-10-19T22:34:08.481Z,1.00
2022-10-19T22:36:36.654Z,1.00
2022-10-19T22:39:05.054Z,1.00
2022-10-19T22:41:33.062Z,1.00
2022-10-19T22:44:01.261Z,1.00
2022-10-19T22:46:30.671Z,1.00
2022-10-19T22:49:00.205Z,1.00
2022-10-19T22:51:28.283Z,1.00
2022-10-19T22:53:56.444Z,1.00
2022-10-19T22:56:24.529Z,1.00
2022-10-19T22:58:52.616Z,99.90
2022-10-19T23:01:20.981Z,1.00
2022-10-19T23:03:50.446Z,1.00
2022-10-19T23:06:18.587Z,1.00
2022-10-19T23:08:47.212Z,1.00
2022-10-19T23:11:16.062Z,1.00
2022-10-19T23:13:44.502Z,1.00
2022-10-19T23:16:12.773Z,1.00
2022-10-19T23:18:42.168Z,1.00
2022-10-19T23:21:13.817Z,99.90
2022-10-19T23:23:42.444Z,1.00
2022-10-19T23:26:12.885Z,99.90
2022-10-19T23:28:42.909Z,99.90
2022-10-19T23:31:12.910Z,1.00
2022-10-19T23:33:41.697Z,1.00
2022-10-19T23:36:14.265Z,1.00
2022-10-19T23:38:42.941Z,1.00
2022-10-19T23:41:11.379Z,1.00
2022-10-19T23:43:39.437Z,1.00
2022-10-19T23:46:07.951Z,1.00
2022-10-19T23:48:36.542Z,1.00
2022-10-19T23:51:06.533Z,1.00
2022-10-19T23:53:41.040Z,1.00
2022-10-19T23:56:12.422Z,1.00
2022-10-19T23:58:40.497Z,1.00
